Time;durP1;ratioP1;P1;durP2;ratioP2;P2;SDS_P1;SDS_P2;PMS_P1;PMS_P2;Temp;Humidity;BMP_temperature;BMP_pressure;BME280_temperature;BME280_humidity;BME280_pressure;Samples;Min_cycle;Max_cycle;Signal;HPM_P1;HPM_P2
2022/08/24 00:02:00;;;;;;;8.75;5.20;;;;;;;;;;1754653;80;21088;-75
2022/08/24 00:04:27;;;;;;;7.03;5.50;;;;;;;;;;1755553;81;21068;-74
2022/08/24 00:06:54;;;;;;;8.08;5.35;;;;;;;;;;1756666;81;20987;-74
2022/08/24 00:09:22;;;;;;;11.18;5.83;;;;;;;;;;1755495;81;21048;-74
2022/08/24 00:11:48;;;;;;;7.22;5.55;;;;;;;;;;1757329;81;21071;-74
2022/08/24 00:14:18;;;;;;;9.45;5.42;;;;;;;;;;1757495;80;21043;-74
2022/08/24 00:16:44;;;;;;;9.80;5.50;;;;;;;;;;1766111;80;21075;-74
2022/08/24 00:19:12;;;;;;;9.03;5.35;;;;;;;;;;1765763;80;21099;-74
2022/08/24 00:21:39;;;;;;;10.00;5.65;;;;;;;;;;1766420;80;21027;-74
2022/08/24 00:24:05;;;;;;;9.73;5.33;;;;;;;;;;1770070;80;21099;-73
2022/08/24 00:26:31;;;;;;;8.83;5.40;;;;;;;;;;1765209;80;21112;-74
2022/08/24 00:28:58;;;;;;;8.45;5.75;;;;;;;;;;1760091;81;21056;-75
2022/08/24 00:31:25;;;;;;;7.87;5.67;;;;;;;;;;1738096;80;21036;-75
2022/08/24 00:33:51;;;;;;;8.03;5.30;;;;;;;;;;1758750;80;20981;-74
2022/08/24 00:36:17;;;;;;;6.92;5.33;;;;;;;;;;1770026;80;21563;-75
2022/08/24 00:38:43;;;;;;;9.00;5.40;;;;;;;;;;1766805;81;21020;-74
2022/08/24 00:41:09;;;;;;;9.18;5.40;;;;;;;;;;1768459;80;21049;-75
2022/08/24 00:43:35;;;;;;;8.23;5.58;;;;;;;;;;1767021;80;21079;-74
2022/08/24 00:46:06;;;;;;;8.45;5.67;;;;;;;;;;1770939;81;21099;-75
2022/08/24 00:48:33;;;;;;;9.55;5.65;;;;;;;;;;1767034;81;21103;-74
2022/08/24 00:51:01;;;;;;;7.87;4.72;;;;;;;;;;1769289;80;21015;-72
2022/08/24 00:53:38;;;;;;;7.90;4.92;;;;;;;;;;1770279;80;21064;-72
2022/08/24 00:56:05;;;;;;;7.62;4.80;;;;;;;;;;1760010;81;21038;-73
2022/08/24 00:58:42;;;;;;;10.38;5.28;;;;;;;;;;1749016;81;21128;-74
2022/08/24 01:03:52;;;;;;;7.87;4.85;;;;;;;;;;1743815;80;75316;-68
2022/08/24 01:06:19;;;;;;;8.08;4.80;;;;;;;;;;1815698;79;21036;-69
2022/08/24 01:08:45;;;;;;;7.90;5.10;;;;;;;;;;1815227;79;21005;-69
2022/08/24 01:11:13;;;;;;;8.33;4.95;;;;;;;;;;1814942;79;21031;-69
2022/08/24 01:13:44;;;;;;;8.10;5.60;;;;;;;;;;1814976;79;21594;-69
2022/08/24 01:16:10;;;;;;;8.75;5.33;;;;;;;;;;1814921;79;20976;-69
2022/08/24 01:18:50;;;;;;;6.20;4.67;;;;;;;;;;1814832;79;21067;-69
2022/08/24 01:21:22;;;;;;;8.10;4.80;;;;;;;;;;1814794;79;21021;-68
2022/08/24 01:23:50;;;;;;;6.85;5.05;;;;;;;;;;1814847;79;21021;-68
2022/08/24 01:26:18;;;;;;;9.33;4.92;;;;;;;;;;1813941;79;21044;-68
2022/08/24 01:28:46;;;;;;;8.33;5.37;;;;;;;;;;1814771;79;21056;-69
2022/08/24 01:31:12;;;;;;;6.65;4.55;;;;;;;;;;1814920;79;21009;-69
2022/08/24 01:33:38;;;;;;;6.65;5.10;;;;;;;;;;1814978;79;20992;-69
2022/08/24 01:36:10;;;;;;;8.03;5.30;;;;;;;;;;1814872;79;21071;-69
2022/08/24 01:38:36;;;;;;;8.03;5.50;;;;;;;;;;1814441;79;20997;-69
2022/08/24 01:41:03;;;;;;;8.40;4.85;;;;;;;;;;1787798;79;21535;-69
2022/08/24 01:43:29;;;;;;;7.90;4.95;;;;;;;;;;1814970;79;21015;-69
2022/08/24 01:45:55;;;;;;;6.97;5.08;;;;;;;;;;1814953;79;21032;-69
2022/08/24 01:48:23;;;;;;;7.42;4.83;;;;;;;;;;1814723;79;21075;-69
2022/08/24 01:50:51;;;;;;;6.92;5.12;;;;;;;;;;1814921;79;20980;-69
2022/08/24 01:53:19;;;;;;;7.92;5.08;;;;;;;;;;1814719;79;21535;-69
2022/08/24 01:55:45;;;;;;;7.97;5.15;;;;;;;;;;1814857;79;21019;-69
2022/08/24 01:58:12;;;;;;;10.03;5.35;;;;;;;;;;1814956;79;21020;-69
2022/08/24 02:00:40;;;;;;;8.33;5.20;;;;;;;;;;1814549;79;21129;-69
2022/08/24 02:03:06;;;;;;;6.85;5.47;;;;;;;;;;1800496;79;21013;-69
2022/08/24 02:05:35;;;;;;;7.95;4.85;;;;;;;;;;1781336;80;21054;-69
2022/08/24 02:08:01;;;;;;;6.97;4.95;;;;;;;;;;1734953;81;21047;-68
2022/08/24 02:10:28;;;;;;;11.22;5.40;;;;;;;;;;1775486;80;21034;-69
2022/08/24 02:12:58;;;;;;;6.35;4.67;;;;;;;;;;1785619;80;20987;-69
2022/08/24 02:15:31;;;;;;;6.08;5.03;;;;;;;;;;1785758;80;22141;-68
2022/08/24 02:17:57;;;;;;;7.72;4.95;;;;;;;;;;1754333;80;21007;-68
2022/08/24 02:20:24;;;;;;;9.98;5.47;;;;;;;;;;1783185;80;21518;-68
2022/08/24 02:22:51;;;;;;;7.55;5.67;;;;;;;;;;1780909;80;21032;-68
2022/08/24 02:25:18;;;;;;;11.22;5.05;;;;;;;;;;1782081;80;21032;-68
2022/08/24 02:27:44;;;;;;;7.55;4.95;;;;;;;;;;1776275;80;21007;-68
2022/08/24 02:30:11;;;;;;;9.40;5.35;;;;;;;;;;1778336;80;21035;-68
2022/08/24 02:32:38;;;;;;;9.08;5.65;;;;;;;;;;1775987;80;21526;-68
2022/08/24 02:35:04;;;;;;;8.38;5.33;;;;;;;;;;1786954;80;21069;-68
2022/08/24 02:37:31;;;;;;;7.83;5.08;;;;;;;;;;1787959;80;21018;-68
2022/08/24 02:39:57;;;;;;;8.58;5.28;;;;;;;;;;1788219;80;21015;-68
2022/08/24 02:42:24;;;;;;;7.03;4.78;;;;;;;;;;1783726;80;21027;-68
2022/08/24 02:44:54;;;;;;;7.80;5.08;;;;;;;;;;1780512;80;21010;-68
2022/08/24 02:47:20;;;;;;;7.70;5.17;;;;;;;;;;1783610;80;20978;-68
2022/08/24 02:49:47;;;;;;;7.60;5.60;;;;;;;;;;1782055;80;21067;-68
2022/08/24 02:52:13;;;;;;;8.30;5.65;;;;;;;;;;1784649;80;21519;-68
2022/08/24 02:54:40;;;;;;;6.95;4.83;;;;;;;;;;1768947;80;21035;-68
2022/08/24 02:57:08;;;;;;;7.58;5.03;;;;;;;;;;1748281;80;20983;-68
2022/08/24 02:59:35;;;;;;;7.58;6.00;;;;;;;;;;1775342;80;21046;-68
2022/08/24 03:02:01;;;;;;;8.98;5.65;;;;;;;;;;1772062;80;20983;-68
2022/08/24 03:04:28;;;;;;;10.25;5.25;;;;;;;;;;1778238;78;21503;-68
2022/08/24 03:06:56;;;;;;;7.78;5.05;;;;;;;;;;1757612;80;21463;-68
2022/08/24 03:09:24;;;;;;;8.65;5.72;;;;;;;;;;1763213;80;21032;-68
2022/08/24 03:11:51;;;;;;;7.53;5.60;;;;;;;;;;1764152;80;20993;-68
2022/08/24 03:14:17;;;;;;;9.08;5.33;;;;;;;;;;1732220;82;20997;-68
2022/08/24 03:16:44;;;;;;;9.48;5.25;;;;;;;;;;1758226;80;21000;-68
2022/08/24 03:19:11;;;;;;;9.53;5.80;;;;;;;;;;1758636;80;21023;-68
2022/08/24 03:21:37;;;;;;;7.53;5.55;;;;;;;;;;1776017;80;21058;-69
2022/08/24 03:24:04;;;;;;;6.95;4.87;;;;;;;;;;1765644;80;21040;-68
2022/08/24 03:26:30;;;;;;;8.75;5.58;;;;;;;;;;1755405;80;21068;-68
2022/08/24 03:28:57;;;;;;;7.92;5.35;;;;;;;;;;1764025;80;20992;-68
2022/08/24 03:31:22;;;;;;;6.62;4.80;;;;;;;;;;1767881;80;21379;-68
2022/08/24 03:33:50;;;;;;;7.50;4.33;;;;;;;;;;1756212;80;21084;-68
2022/08/24 03:36:16;;;;;;;10.38;5.40;;;;;;;;;;1756666;80;21051;-68
2022/08/24 03:38:43;;;;;;;9.10;5.00;;;;;;;;;;1751375;80;21067;-68
2022/08/24 03:41:10;;;;;;;7.25;5.12;;;;;;;;;;1714355;82;21476;-68
2022/08/24 03:43:47;;;;;;;8.28;5.22;;;;;;;;;;1718468;82;21033;-68
2022/08/24 03:46:17;;;;;;;7.15;4.00;;;;;;;;;;1711477;83;21049;-68
2022/08/24 03:48:46;;;;;;;9.90;5.37;;;;;;;;;;1711738;83;21056;-68
2022/08/24 03:51:13;;;;;;;7.72;5.10;;;;;;;;;;1682320;84;21036;-68
2022/08/24 03:53:40;;;;;;;7.75;5.45;;;;;;;;;;1718830;82;21499;-68
2022/08/24 03:56:06;;;;;;;9.73;4.55;;;;;;;;;;1722279;82;21016;-68
2022/08/24 03:58:34;;;;;;;8.08;4.85;;;;;;;;;;1723934;82;21017;-68
2022/08/24 04:01:01;;;;;;;6.42;5.20;;;;;;;;;;1696648;83;21620;-68
2022/08/24 04:03:30;;;;;;;7.80;4.60;;;;;;;;;;1683947;84;21634;-68
2022/08/24 04:05:58;;;;;;;10.35;4.90;;;;;;;;;;1709061;83;21060;-68
2022/08/24 04:08:25;;;;;;;8.00;4.85;;;;;;;;;;1683720;84;21052;-68
2022/08/24 04:10:53;;;;;;;7.03;4.70;;;;;;;;;;1726408;82;21072;-68
2022/08/24 04:13:19;;;;;;;7.72;5.00;;;;;;;;;;1723459;82;21047;-68
2022/08/24 04:15:46;;;;;;;6.33;4.47;;;;;;;;;;1716091;82;21060;-68
2022/08/24 04:18:12;;;;;;;7.90;4.50;;;;;;;;;;1704787;83;21004;-68
2022/08/24 04:20:39;;;;;;;9.28;5.03;;;;;;;;;;1702744;84;21528;-69
2022/08/24 04:23:06;;;;;;;5.90;4.47;;;;;;;;;;1687584;83;21057;-68
2022/08/24 04:25:40;;;;;;;6.75;4.33;;;;;;;;;;1690338;83;21017;-68
2022/08/24 04:28:09;;;;;;;5.05;4.17;;;;;;;;;;1707665;84;21547;-68
2022/08/24 04:30:37;;;;;;;6.75;4.12;;;;;;;;;;1711603;82;21108;-68
2022/08/24 04:33:05;;;;;;;7.22;4.42;;;;;;;;;;1713568;84;21024;-68
2022/08/24 04:35:33;;;;;;;6.47;4.37;;;;;;;;;;1717086;82;21032;-69
2022/08/24 04:37:59;;;;;;;5.17;4.17;;;;;;;;;;1721708;82;21059;-68
2022/08/24 04:40:26;;;;;;;6.10;4.47;;;;;;;;;;1728449;82;21047;-69
2022/08/24 04:42:52;;;;;;;9.18;4.85;;;;;;;;;;1728839;82;21027;-69
2022/08/24 04:45:18;;;;;;;8.38;4.12;;;;;;;;;;1719395;82;21499;-69
2022/08/24 04:47:45;;;;;;;8.90;4.42;;;;;;;;;;1703252;82;21001;-69
2022/08/24 04:50:12;;;;;;;6.40;4.37;;;;;;;;;;1722093;82;21150;-69
2022/08/24 04:52:38;;;;;;;6.78;4.45;;;;;;;;;;1698383;84;21028;-69
2022/08/24 04:55:06;;;;;;;6.58;4.37;;;;;;;;;;1713415;82;21024;-69
2022/08/24 04:57:34;;;;;;;8.00;4.20;;;;;;;;;;1712862;82;21032;-69
2022/08/24 05:00:00;;;;;;;8.10;4.40;;;;;;;;;;1718145;82;21028;-69
2022/08/24 05:02:26;;;;;;;8.38;4.35;;;;;;;;;;1719632;82;21047;-69
2022/08/24 05:04:58;;;;;;;8.03;4.53;;;;;;;;;;1672970;83;21131;-69
2022/08/24 05:07:24;;;;;;;6.45;4.28;;;;;;;;;;1692043;82;21005;-70
2022/08/24 05:09:50;;;;;;;6.65;4.12;;;;;;;;;;1733927;82;21012;-68
2022/08/24 05:12:19;;;;;;;6.67;3.80;;;;;;;;;;1693872;83;21590;-70
2022/08/24 05:14:47;;;;;;;7.53;4.28;;;;;;;;;;1703251;83;21071;-68
2022/08/24 05:17:13;;;;;;;6.42;4.37;;;;;;;;;;1691875;83;21282;-69
2022/08/24 05:19:41;;;;;;;9.35;4.55;;;;;;;;;;1680691;84;21076;-68
2022/08/24 05:22:07;;;;;;;8.20;4.67;;;;;;;;;;1671661;84;21152;-69
2022/08/24 05:24:34;;;;;;;9.98;4.83;;;;;;;;;;1711274;84;21562;-69
2022/08/24 05:27:01;;;;;;;7.92;3.95;;;;;;;;;;1691158;84;21304;-70
2022/08/24 05:29:27;;;;;;;8.10;4.58;;;;;;;;;;1704807;82;21087;-69
2022/08/24 05:31:54;;;;;;;8.30;3.95;;;;;;;;;;1704888;83;21075;-70
2022/08/24 05:34:21;;;;;;;6.50;4.30;;;;;;;;;;1710748;83;21539;-69
2022/08/24 05:36:47;;;;;;;8.25;4.03;;;;;;;;;;1656084;84;20961;-69
2022/08/24 05:39:20;;;;;;;7.37;4.60;;;;;;;;;;1724907;82;21555;-70
2022/08/24 05:41:48;;;;;;;7.90;4.70;;;;;;;;;;1726871;82;21573;-70
2022/08/24 05:44:23;;;;;;;8.43;4.17;;;;;;;;;;1738720;82;21040;-69
2022/08/24 05:46:49;;;;;;;7.42;4.40;;;;;;;;;;1708208;83;21023;-69
2022/08/24 05:49:15;;;;;;;6.87;4.08;;;;;;;;;;1688857;84;21084;-68
2022/08/24 05:51:41;;;;;;;9.13;4.15;;;;;;;;;;1715804;82;21589;-70
2022/08/24 05:54:08;;;;;;;7.87;4.47;;;;;;;;;;1708584;82;21060;-68
2022/08/24 05:56:37;;;;;;;7.30;4.30;;;;;;;;;;1702984;83;21571;-69
2022/08/24 05:59:05;;;;;;;9.50;4.40;;;;;;;;;;1699202;83;21123;-69
2022/08/24 06:01:32;;;;;;;8.15;4.22;;;;;;;;;;1662047;84;21061;-69
2022/08/24 06:03:58;;;;;;;6.92;4.40;;;;;;;;;;1678399;82;21107;-69
2022/08/24 06:06:25;;;;;;;8.15;4.30;;;;;;;;;;1706507;82;21075;-69
2022/08/24 06:08:53;;;;;;;9.93;4.60;;;;;;;;;;1716850;82;21575;-70
2022/08/24 06:11:27;;;;;;;7.25;4.35;;;;;;;;;;1722119;82;21044;-69
2022/08/24 06:13:55;;;;;;;11.88;4.72;;;;;;;;;;1736124;81;22123;-69
2022/08/24 06:16:22;;;;;;;40.30;6.62;;;;;;;;;;1704424;81;21317;-68
2022/08/24 06:18:50;;;;;;;9.20;4.78;;;;;;;;;;1727244;81;21055;-69
2022/08/24 06:21:17;;;;;;;10.88;4.10;;;;;;;;;;1769077;80;21090;-67
2022/08/24 06:23:44;;;;;;;8.03;5.00;;;;;;;;;;1786307;80;22161;-68
2022/08/24 06:28:55;;;;;;;6.60;4.60;;;;;;;;;;1753939;80;21019;-67
2022/08/24 06:31:23;;;;;;;10.18;4.33;;;;;;;;;;1791905;80;21569;-66
2022/08/24 06:33:49;;;;;;;12.93;4.50;;;;;;;;;;1774658;80;21015;-67
2022/08/24 06:36:15;;;;;;;6.05;4.50;;;;;;;;;;1751285;80;21517;-68
2022/08/24 06:38:42;;;;;;;8.80;4.80;;;;;;;;;;1753570;81;21051;-68
2022/08/24 06:41:09;;;;;;;12.60;4.97;;;;;;;;;;1751864;81;21000;-66
2022/08/24 06:43:37;;;;;;;8.53;4.60;;;;;;;;;;1752845;81;21015;-68
2022/08/24 06:46:05;;;;;;;9.43;4.83;;;;;;;;;;1753783;81;21126;-68
2022/08/24 06:48:33;;;;;;;8.00;4.10;;;;;;;;;;1752854;81;21717;-69
2022/08/24 06:51:00;;;;;;;8.73;4.62;;;;;;;;;;1755031;80;21042;-70
2022/08/24 06:53:26;;;;;;;7.92;4.47;;;;;;;;;;1750709;81;21020;-68
2022/08/24 06:55:55;;;;;;;8.08;4.22;;;;;;;;;;1750840;81;21070;-70
2022/08/24 06:58:21;;;;;;;8.80;4.40;;;;;;;;;;1751357;80;21063;-68
2022/08/24 07:00:48;;;;;;;10.10;4.37;;;;;;;;;;1752559;81;20974;-67
2022/08/24 07:03:15;;;;;;;9.35;4.50;;;;;;;;;;1756190;80;21082;-69
2022/08/24 07:05:51;;;;;;;8.18;4.40;;;;;;;;;;1762639;79;21615;-67
2022/08/24 07:08:19;;;;;;;8.25;4.47;;;;;;;;;;1774508;79;21095;-68
2022/08/24 07:10:45;;;;;;;11.22;4.40;;;;;;;;;;1774538;79;21030;-68
2022/08/24 07:13:13;;;;;;;11.05;4.17;;;;;;;;;;1775725;79;21521;-68
2022/08/24 07:15:40;;;;;;;11.83;4.90;;;;;;;;;;1778982;79;20997;-66
2022/08/24 07:18:10;;;;;;;7.78;4.47;;;;;;;;;;1779612;79;21060;-68
2022/08/24 07:20:38;;;;;;;7.62;4.00;;;;;;;;;;1779313;79;21034;-68
2022/08/24 07:23:11;;;;;;;6.53;4.85;;;;;;;;;;1780867;79;21111;-69
2022/08/24 07:25:37;;;;;;;12.23;4.65;;;;;;;;;;1771469;79;20988;-68
2022/08/24 07:28:04;;;;;;;6.12;4.17;;;;;;;;;;1782320;79;21033;-68
2022/08/24 07:30:30;;;;;;;12.40;4.37;;;;;;;;;;1769782;79;21585;-70
2022/08/24 07:32:57;;;;;;;10.13;4.78;;;;;;;;;;1772061;79;21063;-68
2022/08/24 07:35:24;;;;;;;9.73;4.00;;;;;;;;;;1773874;79;21557;-67
2022/08/24 07:37:51;;;;;;;8.43;4.17;;;;;;;;;;1772570;79;20978;-68
2022/08/24 07:40:18;;;;;;;9.10;4.33;;;;;;;;;;1740013;81;20990;-69
2022/08/24 07:42:49;;;;;;;13.13;4.70;;;;;;;;;;1709919;82;21084;-67
2022/08/24 07:45:15;;;;;;;15.58;5.12;;;;;;;;;;1744431;81;21524;-68
2022/08/24 07:47:44;;;;;;;13.70;5.03;;;;;;;;;;1742405;81;21534;-67
2022/08/24 07:50:12;;;;;;;9.65;4.70;;;;;;;;;;1740638;81;21522;-68
2022/08/24 07:52:40;;;;;;;23.95;15.60;;;;;;;;;;1753717;81;21038;-66
2022/08/24 07:55:07;;;;;;;16.67;9.15;;;;;;;;;;1739264;82;21537;-66
2022/08/24 07:57:34;;;;;;;24.67;11.00;;;;;;;;;;1744577;81;20958;-66
2022/08/24 08:00:01;;;;;;;16.80;5.33;;;;;;;;;;1747224;81;21552;-67
2022/08/24 08:02:27;;;;;;;13.75;4.87;;;;;;;;;;1741933;81;21121;-67
2022/08/24 08:04:54;;;;;;;14.85;4.58;;;;;;;;;;1713737;82;21529;-67
2022/08/24 08:07:21;;;;;;;20.52;5.42;;;;;;;;;;1752852;81;21014;-66
2022/08/24 08:09:52;;;;;;;19.62;5.22;;;;;;;;;;1746683;81;20985;-68
2022/08/24 08:12:16;;;;;;;15.88;5.10;;;;;;;;;;1722105;82;21033;-66
2022/08/24 08:14:44;;;;;;;17.17;4.80;;;;;;;;;;1729655;82;20984;-66
2022/08/24 08:17:10;;;;;;;16.40;4.65;;;;;;;;;;1727886;82;21030;-67
2022/08/24 08:19:36;;;;;;;12.90;4.70;;;;;;;;;;1728616;82;20977;-67
2022/08/24 08:24:59;;;;;;;17.98;4.67;;;;;;;;;;1724715;82;21571;-66
2022/08/24 08:27:26;;;;;;;17.10;4.87;;;;;;;;;;1715761;82;21018;-67
2022/08/24 08:29:52;;;;;;;17.30;4.60;;;;;;;;;;1702112;82;21092;-67
2022/08/24 08:32:19;;;;;;;16.30;4.80;;;;;;;;;;1735635;82;20976;-67
2022/08/24 08:34:45;;;;;;;14.23;4.95;;;;;;;;;;1745245;81;21017;-67
2022/08/24 08:37:12;;;;;;;16.48;4.37;;;;;;;;;;1757863;81;20933;-69
2022/08/24 08:39:39;;;;;;;15.83;4.62;;;;;;;;;;1740791;81;21029;-67
2022/08/24 08:42:21;;;;;;;14.47;5.28;;;;;;;;;;1759538;81;20973;-67
2022/08/24 08:45:08;;;;;;;14.70;8.88;;;;;;;;;;1753343;81;21006;-69
2022/08/24 08:47:42;;;;;;;18.65;9.33;;;;;;;;;;1741267;81;21007;-70
2022/08/24 08:50:16;;;;;;;12.63;4.58;;;;;;;;;;1740660;81;21085;-69
2022/08/24 08:52:50;;;;;;;11.28;4.37;;;;;;;;;;1743909;81;21066;-69
2022/08/24 08:55:18;;;;;;;13.13;4.45;;;;;;;;;;1710683;83;21038;-69
2022/08/24 08:57:46;;;;;;;12.68;4.62;;;;;;;;;;1722407;82;21002;-68
2022/08/24 09:00:17;;;;;;;14.58;4.47;;;;;;;;;;1741982;81;21006;-68
2022/08/24 09:02:49;;;;;;;17.87;4.30;;;;;;;;;;1737513;81;21113;-67
2022/08/24 09:05:17;;;;;;;12.60;4.30;;;;;;;;;;1710861;82;20985;-68
2022/08/24 09:07:45;;;;;;;8.38;4.15;;;;;;;;;;1726204;82;21076;-68
2022/08/24 09:10:13;;;;;;;7.30;3.95;;;;;;;;;;1730601;81;21475;-67
2022/08/24 09:12:54;;;;;;;19.92;4.65;;;;;;;;;;1740237;81;21077;-67
2022/08/24 09:15:26;;;;;;;11.65;4.75;;;;;;;;;;1710531;82;21109;-68
2022/08/24 09:18:01;;;;;;;11.93;3.70;;;;;;;;;;1721281;82;21010;-69
2022/08/24 09:20:38;;;;;;;11.50;4.12;;;;;;;;;;1717522;82;21117;-71
2022/08/24 09:23:09;;;;;;;13.45;4.20;;;;;;;;;;1714588;82;21001;-71
2022/08/24 09:25:46;;;;;;;14.20;4.58;;;;;;;;;;1720377;82;21068;-71
2022/08/24 09:28:17;;;;;;;11.83;3.90;;;;;;;;;;1692708;82;21084;-68
2022/08/24 09:30:45;;;;;;;14.38;7.60;;;;;;;;;;1716964;82;21036;-69
2022/08/24 09:33:13;;;;;;;9.50;4.50;;;;;;;;;;1714479;82;21370;-69
2022/08/24 09:35:44;;;;;;;11.65;4.05;;;;;;;;;;1717931;82;21109;-69
2022/08/24 09:38:30;;;;;;;10.58;3.75;;;;;;;;;;1711780;82;21012;-69
2022/08/24 09:41:07;;;;;;;8.85;3.60;;;;;;;;;;1717285;82;21073;-69
2022/08/24 09:43:37;;;;;;;8.60;3.52;;;;;;;;;;1723975;82;21030;-70
2022/08/24 09:46:20;;;;;;;15.70;4.08;;;;;;;;;;1717813;82;21010;-69
2022/08/24 09:49:05;;;;;;;9.90;3.72;;;;;;;;;;1730336;82;21068;-68
2022/08/24 09:51:51;;;;;;;9.43;3.77;;;;;;;;;;1722549;82;21089;-71
2022/08/24 09:54:37;;;;;;;7.53;3.50;;;;;;;;;;1730829;82;21057;-68
2022/08/24 09:57:05;;;;;;;10.98;4.00;;;;;;;;;;1723061;83;21093;-68
2022/08/24 09:59:42;;;;;;;11.45;3.52;;;;;;;;;;1724597;82;21030;-73
2022/08/24 10:02:26;;;;;;;12.00;3.40;;;;;;;;;;1727986;82;21094;-73
2022/08/24 10:05:11;;;;;;;5.83;3.40;;;;;;;;;;1722487;82;21018;-70
2022/08/24 10:07:42;;;;;;;7.33;3.50;;;;;;;;;;1711431;83;21033;-70
2022/08/24 10:10:19;;;;;;;8.33;3.30;;;;;;;;;;1704968;83;21031;-71
2022/08/24 10:12:47;;;;;;;10.63;3.67;;;;;;;;;;1707120;82;21499;-71
2022/08/24 10:15:16;;;;;;;10.15;3.67;;;;;;;;;;1707941;84;21576;-70
2022/08/24 10:17:44;;;;;;;11.45;3.72;;;;;;;;;;1687600;84;21105;-70
2022/08/24 10:20:11;;;;;;;9.88;3.60;;;;;;;;;;1720109;82;21078;-70
2022/08/24 10:22:57;;;;;;;8.48;3.75;;;;;;;;;;1757035;80;21081;-69
2022/08/24 10:25:24;;;;;;;7.55;3.62;;;;;;;;;;1761688;80;20983;-70
2022/08/24 10:28:00;;;;;;;9.65;3.70;;;;;;;;;;1755363;80;21414;-70
2022/08/24 10:30:28;;;;;;;8.53;3.83;;;;;;;;;;1760974;80;21490;-71
2022/08/24 10:32:56;;;;;;;13.03;3.85;;;;;;;;;;1763960;80;21035;-72
2022/08/24 10:35:24;;;;;;;9.95;4.40;;;;;;;;;;1759891;80;20959;-72
2022/08/24 10:40:59;;;;;;;8.43;3.92;;;;;;;;;;1761862;79;20972;-68
2022/08/24 10:43:33;;;;;;;11.57;3.85;;;;;;;;;;1757450;80;21491;-68
2022/08/24 10:46:17;;;;;;;13.93;6.60;;;;;;;;;;1754639;80;21491;-69
2022/08/24 10:49:03;;;;;;;38.00;22.27;;;;;;;;;;1756915;80;21042;-72
2022/08/24 10:51:43;;;;;;;11.80;4.08;;;;;;;;;;1759627;80;20936;-70
2022/08/24 10:54:09;;;;;;;11.97;3.70;;;;;;;;;;1774437;80;20991;-71
2022/08/24 10:56:41;;;;;;;8.08;3.42;;;;;;;;;;1757696;81;21007;-72
2022/08/24 10:59:18;;;;;;;9.20;3.75;;;;;;;;;;1755343;80;21091;-72
2022/08/24 11:02:01;;;;;;;11.30;3.75;;;;;;;;;;1754320;80;21051;-72
2022/08/24 11:04:28;;;;;;;12.18;4.15;;;;;;;;;;1750611;80;21044;-72
2022/08/24 11:07:02;;;;;;;7.53;3.12;;;;;;;;;;1769932;79;21618;-73
2022/08/24 11:09:47;;;;;;;11.73;3.60;;;;;;;;;;1784402;79;21600;-72
2022/08/24 11:12:13;;;;;;;;;;;;;;;;;;1783937;79;21024;-72
2022/08/24 11:14:39;;;;;;;9.35;3.90;;;;;;;;;;1776862;80;20202;-72
2022/08/24 11:17:19;;;;;;;10.18;3.67;;;;;;;;;;1778030;80;21196;-70
2022/08/24 11:19:45;;;;;;;10.30;3.35;;;;;;;;;;1775437;80;21040;-70
2022/08/24 11:22:22;;;;;;;10.23;4.12;;;;;;;;;;1783792;79;20982;-70
2022/08/24 11:24:51;;;;;;;18.27;4.30;;;;;;;;;;1732707;82;21550;-70
2022/08/24 11:27:18;;;;;;;11.50;3.87;;;;;;;;;;1730174;82;20986;-71
2022/08/24 11:29:52;;;;;;;11.28;3.45;;;;;;;;;;1723305;82;20986;-70
2022/08/24 11:32:25;;;;;;;31.02;5.35;;;;;;;;;;1732358;82;21162;-73
2022/08/24 11:34:51;;;;;;;9.75;3.52;;;;;;;;;;1724298;82;20968;-73
2022/08/24 11:37:18;;;;;;;9.00;3.30;;;;;;;;;;1759266;81;21033;-77
2022/08/24 11:39:44;;;;;;;12.95;3.50;;;;;;;;;;1717320;82;21477;-75
2022/08/24 11:42:13;;;;;;;10.65;3.40;;;;;;;;;;1738009;81;20990;-72
2022/08/24 11:44:42;;;;;;;14.03;3.70;;;;;;;;;;1733083;82;21494;-71
2022/08/24 11:47:16;;;;;;;14.40;7.40;;;;;;;;;;1712753;83;21025;-71
2022/08/24 11:49:52;;;;;;;60.55;47.58;;;;;;;;;;1707909;83;21046;-70
2022/08/24 11:52:37;;;;;;;10.10;4.08;;;;;;;;;;1720627;82;21076;-68
2022/08/24 11:55:21;;;;;;;9.35;3.30;;;;;;;;;;1776855;79;20997;-68
2022/08/24 11:57:59;;;;;;;8.75;3.45;;;;;;;;;;1773372;79;21020;-67
2022/08/24 12:00:29;;;;;;;8.80;3.70;;;;;;;;;;1780083;79;21175;-67
2022/08/24 12:02:57;;;;;;;13.85;3.40;;;;;;;;;;1777738;79;21052;-68
2022/08/24 12:05:29;;;;;;;9.80;3.83;;;;;;;;;;1765646;79;21053;-67
2022/08/24 12:08:13;;;;;;;9.35;3.58;;;;;;;;;;1777165;79;21026;-67
2022/08/24 12:10:41;;;;;;;8.50;3.62;;;;;;;;;;1718015;82;21022;-67
2022/08/24 12:14:16;;;;;;;9.08;3.37;;;;;;;;;;1794037;79;22067;-68
2022/08/24 12:16:53;;;;;;;9.65;3.33;;;;;;;;;;1760314;80;21043;-67
2022/08/24 12:19:21;;;;;;;9.03;3.35;;;;;;;;;;1759709;80;21075;-68
2022/08/24 12:21:49;;;;;;;8.85;3.60;;;;;;;;;;1761501;80;21008;-68
2022/08/24 12:24:17;;;;;;;10.55;3.47;;;;;;;;;;1761729;80;21024;-68
2022/08/24 12:26:44;;;;;;;11.05;3.70;;;;;;;;;;1762336;80;21491;-68
2022/08/24 12:29:21;;;;;;;21.20;4.40;;;;;;;;;;1778558;80;21011;-67
2022/08/24 12:31:49;;;;;;;7.80;3.17;;;;;;;;;;1770165;80;21048;-65
2022/08/24 12:34:29;;;;;;;10.25;3.37;;;;;;;;;;1768284;80;20976;-66
2022/08/24 12:37:06;;;;;;;26.02;4.03;;;;;;;;;;1758427;81;21025;-67
2022/08/24 12:39:40;;;;;;;8.80;3.60;;;;;;;;;;1759832;80;21041;-66
2022/08/24 12:42:20;;;;;;;32.58;5.20;;;;;;;;;;1742601;80;21567;-64
2022/08/24 12:44:51;;;;;;;28.25;4.78;;;;;;;;;;1765072;80;21552;-65
2022/08/24 12:47:28;;;;;;;11.15;3.52;;;;;;;;;;1764929;80;21028;-65
2022/08/24 12:50:08;;;;;;;8.65;2.92;;;;;;;;;;1757816;80;21519;-65
2022/08/24 12:52:45;;;;;;;8.68;3.12;;;;;;;;;;1760919;80;21083;-66
2022/08/24 12:55:22;;;;;;;8.43;3.10;;;;;;;;;;1764812;80;21013;-67
2022/08/24 12:58:06;;;;;;;10.72;3.60;;;;;;;;;;1760443;80;21153;-66
2022/08/24 13:00:40;;;;;;;7.47;2.98;;;;;;;;;;1736224;82;21084;-67
2022/08/24 13:03:07;;;;;;;10.48;3.30;;;;;;;;;;1705155;82;21036;-66
2022/08/24 13:05:40;;;;;;;11.55;3.55;;;;;;;;;;1729788;82;20984;-65
2022/08/24 13:08:25;;;;;;;7.72;3.30;;;;;;;;;;1736184;80;21514;-66
2022/08/24 13:10:52;;;;;;;7.28;3.00;;;;;;;;;;1735520;82;21600;-66
2022/08/24 13:13:20;;;;;;;11.38;3.60;;;;;;;;;;1727798;81;21021;-67
2022/08/24 13:15:48;;;;;;;26.68;4.25;;;;;;;;;;1721399;82;21060;-67
2022/08/24 13:18:16;;;;;;;5.35;3.25;;;;;;;;;;1710408;84;20990;-68
2022/08/24 13:20:45;;;;;;;5.45;3.00;;;;;;;;;;1710445;84;21041;-65
2022/08/24 13:23:13;;;;;;;7.25;3.37;;;;;;;;;;1716030;81;20976;-65
2022/08/24 13:25:50;;;;;;;5.20;3.17;;;;;;;;;;1725681;82;21037;-66
2022/08/24 13:28:20;;;;;;;8.23;3.30;;;;;;;;;;1728316;81;21523;-67
2022/08/24 13:30:54;;;;;;;5.35;2.90;;;;;;;;;;1732281;81;21081;-67
2022/08/24 13:33:34;;;;;;;6.47;2.98;;;;;;;;;;1730510;81;21002;-67
2022/08/24 13:36:02;;;;;;;11.08;3.50;;;;;;;;;;1763266;81;20997;-67
2022/08/24 13:38:36;;;;;;;6.40;3.10;;;;;;;;;;1742842;81;21655;-66
2022/08/24 13:41:04;;;;;;;8.05;3.17;;;;;;;;;;1738210;81;21588;-66
2022/08/24 13:43:38;;;;;;;17.57;3.42;;;;;;;;;;1737055;81;21033;-66
2022/08/24 13:46:21;;;;;;;7.80;3.08;;;;;;;;;;1739547;81;21060;-67
2022/08/24 13:48:49;;;;;;;6.60;2.70;;;;;;;;;;1736082;81;21021;-66
2022/08/24 13:51:19;;;;;;;8.23;3.08;;;;;;;;;;1742085;81;21061;-65
2022/08/24 13:53:50;;;;;;;5.67;2.70;;;;;;;;;;1745716;81;21165;-67
2022/08/24 13:56:24;;;;;;;9.45;2.83;;;;;;;;;;1740393;81;21044;-68
2022/08/24 13:59:04;;;;;;;16.37;12.65;;;;;;;;;;1741972;81;21604;-69
2022/08/24 14:01:49;;;;;;;14.80;10.43;;;;;;;;;;1737182;81;21538;-68
2022/08/24 14:04:17;;;;;;;5.12;4.00;;;;;;;;;;1739103;81;21033;-68
2022/08/24 14:06:47;;;;;;;17.40;7.30;;;;;;;;;;1735336;81;21088;-69
2022/08/24 14:09:32;;;;;;;12.18;6.15;;;;;;;;;;1735647;81;21138;-68
2022/08/24 14:12:17;;;;;;;7.67;3.10;;;;;;;;;;1735003;81;21056;-70
2022/08/24 14:15:01;;;;;;;6.53;2.65;;;;;;;;;;1748105;80;21036;-68
2022/08/24 14:17:51;;;;;;;4.72;2.95;;;;;;;;;;1752865;80;21008;-68
2022/08/24 14:20:36;;;;;;;11.63;3.25;;;;;;;;;;1748357;80;21036;-69
2022/08/24 14:23:13;;;;;;;5.95;3.08;;;;;;;;;;1751632;80;21142;-70
2022/08/24 14:25:40;;;;;;;5.75;3.20;;;;;;;;;;1749414;80;21052;-69
2022/08/24 14:28:25;;;;;;;9.43;4.42;;;;;;;;;;1739634;80;20985;-69
2022/08/24 14:31:09;;;;;;;11.08;3.75;;;;;;;;;;1749517;82;21045;-69
2022/08/24 14:33:35;;;;;;;7.55;3.30;;;;;;;;;;1738265;80;21104;-70
2022/08/24 14:36:10;;;;;;;8.25;3.90;;;;;;;;;;1705280;82;21020;-69
2022/08/24 14:38:45;;;;;;;16.85;9.98;;;;;;;;;;1748364;80;21009;-69
2022/08/24 14:41:19;;;;;;;10.75;6.58;;;;;;;;;;1739189;80;21516;-68
2022/08/24 14:43:53;;;;;;;24.80;5.33;;;;;;;;;;1743315;80;20989;-68
2022/08/24 14:46:23;;;;;;;10.20;4.40;;;;;;;;;;1747781;80;21068;-68
2022/08/24 14:49:08;;;;;;;8.80;4.15;;;;;;;;;;1739805;80;21527;-69
2022/08/24 14:51:36;;;;;;;7.33;3.33;;;;;;;;;;1739516;80;21020;-69
2022/08/24 14:54:13;;;;;;;12.73;7.58;;;;;;;;;;1738077;82;22107;-69
2022/08/24 14:56:40;;;;;;;9.90;3.40;;;;;;;;;;1735467;80;21032;-70
2022/08/24 14:59:22;;;;;;;6.92;4.70;;;;;;;;;;1739103;80;21056;-69
2022/08/24 15:01:49;;;;;;;20.12;14.98;;;;;;;;;;1737311;82;21580;-69
2022/08/24 15:04:20;;;;;;;9.65;4.72;;;;;;;;;;1733458;80;21655;-69
2022/08/24 15:06:50;;;;;;;8.83;3.60;;;;;;;;;;1739015;82;21020;-67
2022/08/24 15:09:24;;;;;;;7.37;3.17;;;;;;;;;;1733056;80;21686;-67